createdAt,value
2023-09-17T00:01:58.930Z,13.50
2023-09-17T00:07:01.785Z,43.45
2023-09-17T00:12:05.044Z,15.35
2023-09-17T00:17:07.941Z,33.38
2023-09-17T00:22:13.016Z,33.20
2023-09-17T00:27:15.808Z,25.70
2023-09-17T00:32:19.492Z,22.95
2023-09-17T00:37:22.346Z,23.52
2023-09-17T00:42:25.631Z,21.58
2023-09-17T00:47:28.592Z,22.02
2023-09-17T00:52:32.008Z,14.95
2023-09-17T00:57:35.426Z,16.08
2023-09-17T01:02:39.381Z,16.23
2023-09-17T01:07:42.793Z,16.38
2023-09-17T01:12:45.663Z,15.32
2023-09-17T01:17:54.523Z,17.52
2023-09-17T01:23:12.220Z,13.75
2023-09-17T01:28:15.331Z,44.22
2023-09-17T01:33:18.119Z,32.40
2023-09-17T01:38:24.813Z,30.52
2023-09-17T01:43:29.260Z,35.90
2023-09-17T01:48:33.480Z,24.45
2023-09-17T01:53:36.605Z,21.90
2023-09-17T01:58:39.340Z,22.60
2023-09-17T02:03:42.586Z,24.42
2023-09-17T02:08:45.375Z,18.65
2023-09-17T02:13:48.316Z,17.50
2023-09-17T02:18:52.648Z,18.55
2023-09-17T02:23:56.299Z,17.88
2023-09-17T02:28:59.483Z,23.27
2023-09-17T02:34:02.129Z,20.65
2023-09-17T02:39:05.401Z,17.65
2023-09-17T02:44:08.051Z,17.92
2023-09-17T02:49:11.131Z,19.98
2023-09-17T02:54:13.815Z,18.30
2023-09-17T02:59:16.722Z,19.27
2023-09-17T03:04:19.542Z,16.60
2023-09-17T03:09:22.337Z,17.42
2023-09-17T03:14:27.305Z,16.70
2023-09-17T03:19:31.292Z,17.90
2023-09-17T03:24:34.037Z,23.13
2023-09-17T03:29:36.917Z,17.15
2023-09-17T03:34:40.599Z,14.75
2023-09-17T03:39:44.719Z,16.58
2023-09-17T03:44:47.629Z,20.10
2023-09-17T03:49:50.463Z,17.05
2023-09-17T03:54:53.697Z,20.02
2023-09-17T03:59:56.556Z,22.58
2023-09-17T04:04:59.380Z,16.20
2023-09-17T04:10:04.071Z,14.65
2023-09-17T04:15:14.474Z,15.85
2023-09-17T04:20:19.828Z,14.93
2023-09-17T04:25:27.365Z,19.20
2023-09-17T04:30:31.256Z,18.25
2023-09-17T04:35:34.104Z,17.35
2023-09-17T04:40:37.253Z,18.42
2023-09-17T04:45:45.503Z,19.00
2023-09-17T04:56:11.030Z,17.60
2023-09-17T05:01:16.537Z,19.48
2023-09-17T05:06:20.170Z,16.45
2023-09-17T05:11:23.443Z,21.50
2023-09-17T05:16:26.331Z,17.73
2023-09-17T05:21:29.116Z,20.27
2023-09-17T05:26:32.775Z,17.88
2023-09-17T05:31:35.697Z,18.90
2023-09-17T05:36:38.820Z,18.88
2023-09-17T05:41:41.764Z,17.85
2023-09-17T05:46:44.732Z,19.10
2023-09-17T05:51:47.798Z,19.75
2023-09-17T05:56:54.681Z,24.75
2023-09-17T06:01:59.495Z,21.17
2023-09-17T06:07:02.416Z,22.27
2023-09-17T06:12:06.184Z,21.05
2023-09-17T06:17:09.682Z,21.77
2023-09-17T06:22:12.812Z,21.75
2023-09-17T06:27:15.684Z,23.35
2023-09-17T06:32:19.420Z,24.23
2023-09-17T06:37:22.425Z,21.05
2023-09-17T06:42:26.234Z,20.92
2023-09-17T06:47:29.156Z,20.25
2023-09-17T06:52:32.009Z,23.20
2023-09-17T06:57:34.736Z,20.35
2023-09-17T07:02:37.343Z,18.77
2023-09-17T07:07:40.034Z,18.10
2023-09-17T07:12:43.617Z,15.63
2023-09-17T07:17:46.396Z,19.00
2023-09-17T07:22:49.745Z,13.40
2023-09-17T07:27:52.453Z,15.10
2023-09-17T07:32:55.742Z,11.20
2023-09-17T07:37:58.575Z,11.55
2023-09-17T07:43:02.557Z,9.10
2023-09-17T07:48:07.241Z,9.98
2023-09-17T07:53:10.124Z,7.43
2023-09-17T07:58:12.747Z,10.20
2023-09-17T08:03:17.775Z,10.18
2023-09-17T08:08:20.422Z,11.07
2023-09-17T08:13:23.332Z,8.77
2023-09-17T08:18:26.385Z,8.55
2023-09-17T08:23:29.056Z,10.93
2023-09-17T08:28:51.689Z,8.82
2023-09-17T08:34:18.263Z,8.13
2023-09-17T08:39:28.882Z,7.10
2023-09-17T08:44:34.868Z,8.20
2023-09-17T08:49:37.646Z,6.65
2023-09-17T08:54:43.421Z,10.60
2023-09-17T08:59:54.052Z,5.43
2023-09-17T09:04:58.275Z,8.50
2023-09-17T09:10:02.733Z,7.25
2023-09-17T09:15:08.438Z,5.68
2023-09-17T09:20:18.133Z,6.97
2023-09-17T09:25:21.011Z,5.70
2023-09-17T09:30:23.796Z,5.07
2023-09-17T09:35:26.720Z,5.43
2023-09-17T09:40:30.250Z,5.50
2023-09-17T09:45:34.626Z,4.88
2023-09-17T09:50:37.432Z,4.45
2023-09-17T09:55:40.406Z,4.78
2023-09-17T10:00:46.350Z,5.43
2023-09-17T10:05:50.067Z,4.15
2023-09-17T10:10:52.777Z,6.45
2023-09-17T10:15:56.566Z,5.15
2023-09-17T10:21:01.070Z,4.18
2023-09-17T10:26:04.989Z,6.35
2023-09-17T10:31:10.001Z,5.47
2023-09-17T10:36:13.731Z,4.25
2023-09-17T10:41:17.186Z,7.30
2023-09-17T10:46:22.821Z,5.22
2023-09-17T10:51:28.397Z,4.45
2023-09-17T10:56:31.731Z,4.18
2023-09-17T11:01:36.087Z,3.33
2023-09-17T11:06:40.950Z,5.55
2023-09-17T11:11:44.766Z,5.70
2023-09-17T11:16:49.661Z,4.75
2023-09-17T11:22:09.642Z,3.58
2023-09-17T11:27:13.584Z,4.30
2023-09-17T11:32:23.388Z,3.80
2023-09-17T11:37:26.838Z,3.72
2023-09-17T11:42:29.737Z,3.10
2023-09-17T11:47:32.474Z,3.13
2023-09-17T11:52:35.295Z,5.07
2023-09-17T11:57:38.140Z,3.00
2023-09-17T12:02:43.962Z,3.53
2023-09-17T12:07:55.189Z,6.43
2023-09-17T12:13:00.835Z,5.25
2023-09-17T12:18:04.540Z,5.10
2023-09-17T12:23:15.480Z,4.65
2023-09-17T12:28:29.118Z,6.53
2023-09-17T12:33:31.979Z,3.13
2023-09-17T12:38:34.590Z,5.10
2023-09-17T12:43:37.258Z,4.72
2023-09-17T12:48:40.359Z,7.25
2023-09-17T12:53:44.829Z,3.28
2023-09-17T12:58:51.620Z,2.92
2023-09-17T13:04:05.240Z,5.20
2023-09-17T13:09:10.365Z,3.83
2023-09-17T13:14:13.092Z,3.58
2023-09-17T13:19:16.013Z,4.63
2023-09-17T13:24:19.783Z,5.15
2023-09-17T13:29:22.452Z,4.05
2023-09-17T13:34:25.082Z,4.35
2023-09-17T13:39:27.983Z,3.90
2023-09-17T13:44:30.735Z,7.55
2023-09-17T13:49:33.412Z,8.02
2023-09-17T13:54:38.951Z,6.55
2023-09-17T13:59:41.768Z,5.13
2023-09-17T14:04:44.895Z,4.75
2023-09-17T14:09:47.614Z,4.97
2023-09-17T14:14:50.232Z,5.07
2023-09-17T14:19:52.857Z,5.45
2023-09-17T14:24:55.559Z,5.13
2023-09-17T14:29:58.161Z,4.35
2023-09-17T14:35:00.781Z,7.40
2023-09-17T14:40:03.434Z,7.72
2023-09-17T14:45:07.193Z,5.45
2023-09-17T14:50:11.846Z,6.35
2023-09-17T14:55:14.618Z,7.25
2023-09-17T15:00:17.850Z,7.13
2023-09-17T15:05:20.880Z,8.27
2023-09-17T15:10:23.584Z,4.80
2023-09-17T15:15:26.237Z,6.78
2023-09-17T15:20:31.381Z,6.53
2023-09-17T15:25:35.062Z,9.00
2023-09-17T15:30:37.693Z,10.13
2023-09-17T15:35:41.823Z,7.38
2023-09-17T15:40:44.618Z,8.15
2023-09-17T15:45:47.240Z,9.32
2023-09-17T15:50:52.816Z,11.77
2023-09-17T15:55:55.612Z,8.93
2023-09-17T16:00:58.630Z,8.95
2023-09-17T16:06:01.810Z,9.13
2023-09-17T16:11:04.749Z,8.40
2023-09-17T16:16:07.710Z,12.18
2023-09-17T16:21:11.565Z,12.07
2023-09-17T16:26:15.481Z,10.52
2023-09-17T16:31:18.698Z,10.90
2023-09-17T16:36:21.469Z,9.93
2023-09-17T16:41:24.468Z,13.05
2023-09-17T16:46:27.294Z,8.48
2023-09-17T16:51:30.081Z,10.23
2023-09-17T16:56:32.815Z,14.13
2023-09-17T17:01:36.585Z,10.93
2023-09-17T17:06:39.623Z,13.98
2023-09-17T17:11:42.776Z,10.90
2023-09-17T17:16:45.726Z,11.10
2023-09-17T17:21:48.569Z,9.75
2023-09-17T17:26:52.268Z,14.07
2023-09-17T17:31:55.234Z,13.05
2023-09-17T17:37:01.228Z,19.48
2023-09-17T17:42:04.891Z,13.02
2023-09-17T17:47:07.583Z,12.60
2023-09-17T17:52:10.246Z,14.38
2023-09-17T17:57:12.984Z,11.73
2023-09-17T18:02:15.968Z,10.73
2023-09-17T18:07:18.831Z,9.50
2023-09-17T18:12:21.628Z,11.18
2023-09-17T18:17:26.938Z,12.32
2023-09-17T18:22:30.786Z,10.25
2023-09-17T18:27:33.516Z,11.57
2023-09-17T18:32:36.288Z,10.90
2023-09-17T18:37:39.030Z,10.68
2023-09-17T18:42:41.726Z,10.23
2023-09-17T18:47:44.800Z,10.00
2023-09-17T18:52:47.573Z,9.98
2023-09-17T18:57:50.616Z,9.88
2023-09-17T19:02:53.452Z,11.10
2023-09-17T19:07:56.435Z,9.05
2023-09-17T19:12:59.098Z,8.27
2023-09-17T19:18:01.903Z,11.35
2023-09-17T19:23:04.776Z,8.60
2023-09-17T19:28:10.371Z,10.52
2023-09-17T19:33:14.450Z,11.40
2023-09-17T19:38:17.397Z,22.45
2023-09-17T19:43:20.260Z,15.75
2023-09-17T19:48:23.452Z,16.15
2023-09-17T19:53:26.262Z,10.32
2023-09-17T19:58:28.962Z,14.77
2023-09-17T20:03:31.802Z,11.40
2023-09-17T20:08:34.640Z,11.98
2023-09-17T20:13:37.986Z,15.52
2023-09-17T20:18:42.344Z,11.93
2023-09-17T20:23:45.119Z,11.75
2023-09-17T20:28:49.501Z,12.60
2023-09-17T20:33:52.283Z,10.43
2023-09-17T20:38:55.048Z,22.58
2023-09-17T20:43:58.014Z,15.05
2023-09-17T20:49:01.152Z,13.95
2023-09-17T20:54:04.248Z,12.23
2023-09-17T20:59:06.923Z,12.80
2023-09-17T21:04:10.212Z,14.43
2023-09-17T21:09:31.202Z,12.18
2023-09-17T21:14:33.870Z,13.48
2023-09-17T21:19:36.504Z,11.77
2023-09-17T21:24:39.865Z,13.68
2023-09-17T21:29:42.534Z,11.60
2023-09-17T21:34:45.091Z,14.73
2023-09-17T21:39:47.720Z,11.27
2023-09-17T21:44:50.420Z,11.90
2023-09-17T21:49:55.106Z,10.57
2023-09-17T21:54:58.388Z,11.23
2023-09-17T22:00:01.080Z,11.88
2023-09-17T22:05:05.149Z,12.55
2023-09-17T22:10:08.290Z,11.27
2023-09-17T22:15:11.480Z,12.27
2023-09-17T22:20:19.997Z,12.90
2023-09-17T22:25:23.762Z,14.95
2023-09-17T22:30:27.178Z,13.50
2023-09-17T22:35:29.842Z,11.88
2023-09-17T22:40:32.721Z,14.30
2023-09-17T22:45:39.374Z,13.05
2023-09-17T22:50:41.994Z,13.30
2023-09-17T22:55:44.640Z,13.32
2023-09-17T23:00:47.323Z,13.00
2023-09-17T23:05:50.041Z,10.23
2023-09-17T23:11:00.127Z,13.40
2023-09-17T23:16:03.187Z,18.48
2023-09-17T23:21:05.997Z,15.05
2023-09-17T23:26:09.347Z,12.18
2023-09-17T23:31:12.128Z,11.05
2023-09-17T23:36:14.702Z,10.02
2023-09-17T23:41:20.589Z,11.70
2023-09-17T23:46:23.922Z,10.90
2023-09-17T23:51:26.825Z,8.45
2023-09-17T23:56:29.453Z,10.27
